createdAt,value
2018-01-01T00:00:44.799Z,98764.41
2018-01-01T00:03:17.289Z,98769.58
2018-01-01T00:05:49.800Z,98769.87
2018-01-01T00:08:22.283Z,98759.44
2018-01-01T00:10:54.809Z,98756.00
2018-01-01T00:13:27.318Z,98760.91
2018-01-01T00:15:59.818Z,98761.89
2018-01-01T00:18:32.311Z,98761.73
2018-01-01T00:21:04.825Z,98750.94
2018-01-01T00:23:37.322Z,98750.48
2018-01-01T00:26:09.830Z,98741.59
2018-01-01T00:28:42.315Z,98744.95
2018-01-01T00:31:14.833Z,98743.45
2018-01-01T00:33:47.425Z,98745.02
2018-01-01T00:36:19.960Z,98748.02
2018-01-01T00:38:52.460Z,98746.56
2018-01-01T00:41:24.970Z,98751.05
2018-01-01T00:43:57.485Z,98764.43
2018-01-01T00:46:29.989Z,98763.45
2018-01-01T00:49:02.558Z,98761.58
2018-01-01T00:51:35.067Z,98765.28
2018-01-01T00:54:07.585Z,98760.84
2018-01-01T00:56:40.089Z,98758.95
2018-01-01T00:59:13.348Z,98749.98
2018-01-01T01:01:45.853Z,98755.99
2018-01-01T01:04:18.363Z,98750.52
2018-01-01T01:06:50.868Z,98752.48
2018-01-01T01:09:23.381Z,98763.80
2018-01-01T01:11:55.890Z,98763.44
2018-01-01T01:14:28.406Z,98775.84
2018-01-01T01:17:00.898Z,98780.38
2018-01-01T01:19:33.404Z,98774.33
2018-01-01T01:22:05.934Z,98779.79
2018-01-01T01:24:38.457Z,98772.91
2018-01-01T01:27:10.957Z,98788.64
2018-01-01T01:29:43.475Z,98782.42
2018-01-01T01:32:15.971Z,98784.55
2018-01-01T01:34:48.506Z,98784.31
2018-01-01T01:37:21.052Z,98786.33
2018-01-01T01:39:53.580Z,98788.48
2018-01-01T01:42:26.077Z,98786.16
2018-01-01T01:44:58.620Z,98790.30
2018-01-01T01:47:31.171Z,98797.80
2018-01-01T01:50:03.702Z,98795.16
2018-01-01T01:52:36.255Z,98806.57
2018-01-01T01:55:08.803Z,98809.80
2018-01-01T01:57:41.293Z,98807.23
2018-01-01T02:00:14.628Z,98814.29
2018-01-01T02:02:47.141Z,98819.56
2018-01-01T02:05:19.662Z,98819.33
2018-01-01T02:07:53.443Z,98828.66
2018-01-01T02:10:26.471Z,98822.63
2018-01-01T02:12:59.434Z,98833.78
2018-01-01T02:15:31.971Z,98820.37
2018-01-01T02:18:04.483Z,98826.21
2018-01-01T02:20:36.988Z,98817.00
2018-01-01T02:23:09.503Z,98810.91
2018-01-01T02:25:42.024Z,98815.72
2018-01-01T02:28:14.846Z,98824.46
2018-01-01T02:30:47.377Z,98825.85
2018-01-01T02:33:19.876Z,98822.22
2018-01-01T02:35:52.397Z,98821.08
2018-01-01T02:38:24.903Z,98818.03
2018-01-01T02:40:57.438Z,98818.42
2018-01-01T02:43:30.003Z,98826.47
2018-01-01T02:46:02.527Z,98814.70
2018-01-01T02:48:35.027Z,98801.68
2018-01-01T02:51:07.538Z,98810.62
2018-01-01T02:53:40.048Z,98807.44
2018-01-01T02:56:13.565Z,98803.09
2018-01-01T02:58:46.077Z,98806.21
2018-01-01T03:01:18.595Z,98798.80
2018-01-01T03:03:51.086Z,98793.90
2018-01-01T03:06:23.632Z,98796.91
2018-01-01T03:08:56.141Z,98791.50
2018-01-01T03:11:28.673Z,98800.66
2018-01-01T03:14:01.622Z,98802.98
2018-01-01T03:16:34.604Z,98788.12
2018-01-01T03:19:07.462Z,98790.86
2018-01-01T03:21:40.481Z,98799.55
2018-01-01T03:24:13.879Z,98801.75
2018-01-01T03:26:46.427Z,98799.73
2018-01-01T03:29:18.932Z,98807.59
2018-01-01T03:31:51.458Z,98813.05
2018-01-01T03:34:24.803Z,98807.12
2018-01-01T03:36:57.779Z,98816.83
2018-01-01T03:39:30.326Z,98803.66
2018-01-01T03:42:03.002Z,98817.68
2018-01-01T03:44:35.583Z,98811.69
2018-01-01T03:47:08.104Z,98817.09
2018-01-01T03:49:40.612Z,98821.84
2018-01-01T03:52:14.062Z,98817.97
2018-01-01T03:54:46.598Z,98822.78
2018-01-01T03:57:19.190Z,98823.01
2018-01-01T03:59:51.686Z,98832.16
2018-01-01T04:02:24.214Z,98819.56
2018-01-01T04:04:56.979Z,98820.50
2018-01-01T04:07:29.527Z,98837.09
2018-01-01T04:10:02.034Z,98833.37
2018-01-01T04:12:34.829Z,98827.48
2018-01-01T04:15:07.968Z,98826.83
2018-01-01T04:17:40.571Z,98823.57
2018-01-01T04:20:13.695Z,98824.79
2018-01-01T04:22:46.224Z,98821.97
2018-01-01T04:25:18.751Z,98823.53
2018-01-01T04:27:51.280Z,98819.87
2018-01-01T04:30:23.786Z,98808.17
2018-01-01T04:32:56.315Z,98830.89
2018-01-01T04:35:28.814Z,98825.35
2018-01-01T04:38:01.329Z,98819.84
2018-01-01T04:40:33.824Z,98819.70
2018-01-01T04:43:06.346Z,98817.39
2018-01-01T04:45:38.849Z,98816.23
2018-01-01T04:48:11.835Z,98818.30
2018-01-01T04:50:45.187Z,98811.61
2018-01-01T04:53:17.800Z,98799.88
2018-01-01T04:55:50.324Z,98795.69
2018-01-01T04:58:22.819Z,98802.64
2018-01-01T05:00:55.346Z,98805.48
2018-01-01T05:03:27.852Z,98810.44
2018-01-01T05:06:00.364Z,98809.67
2018-01-01T05:08:32.874Z,98808.41
2018-01-01T05:11:05.392Z,98801.55
2018-01-01T05:13:37.884Z,98794.94
2018-01-01T05:16:10.402Z,98794.20
2018-01-01T05:18:42.893Z,98800.42
2018-01-01T05:21:15.424Z,98800.52
2018-01-01T05:23:47.925Z,98805.51
2018-01-01T05:26:20.464Z,98810.85
2018-01-01T05:28:52.964Z,98809.27
2018-01-01T05:31:25.472Z,98804.63
2018-01-01T05:33:57.953Z,98809.04
2018-01-01T05:36:30.480Z,98819.75
2018-01-01T05:39:03.080Z,98819.25
2018-01-01T05:41:35.616Z,98819.56
2018-01-01T05:44:08.138Z,98819.43
2018-01-01T05:46:40.660Z,98821.00
2018-01-01T05:49:13.747Z,98832.09
2018-01-01T05:51:46.260Z,98838.55
2018-01-01T05:54:18.741Z,98841.84
2018-01-01T05:56:51.281Z,98848.81
2018-01-01T05:59:23.771Z,98862.48
2018-01-01T06:01:56.279Z,98851.47
2018-01-01T06:04:28.771Z,98864.17
2018-01-01T06:07:01.273Z,98863.95
2018-01-01T06:09:33.747Z,98870.30
2018-01-01T06:12:06.262Z,98866.36
2018-01-01T06:14:38.755Z,98858.44
2018-01-01T06:17:11.260Z,98874.81
2018-01-01T06:19:44.242Z,98868.55
2018-01-01T06:22:16.740Z,98856.70
2018-01-01T06:24:49.219Z,98855.72
2018-01-01T06:27:21.727Z,98870.73
2018-01-01T06:29:54.220Z,98874.91
2018-01-01T06:32:26.731Z,98871.33
2018-01-01T06:34:59.215Z,98869.28
2018-01-01T06:37:31.733Z,98877.37
2018-01-01T06:40:04.258Z,98892.69
2018-01-01T06:42:36.757Z,98886.12
2018-01-01T06:45:09.256Z,98908.16
2018-01-01T06:47:41.764Z,98908.80
2018-01-01T06:50:14.463Z,98915.73
2018-01-01T06:52:47.002Z,98922.80
2018-01-01T06:55:19.495Z,98918.31
2018-01-01T06:57:52.005Z,98929.30
2018-01-01T07:00:24.541Z,98935.13
2018-01-01T07:02:57.053Z,98936.88
2018-01-01T07:05:29.537Z,98925.06
2018-01-01T07:08:02.048Z,98956.91
2018-01-01T07:10:34.552Z,98957.39
2018-01-01T07:13:07.066Z,98965.72
2018-01-01T07:15:39.570Z,98975.67
2018-01-01T07:18:12.084Z,98984.97
2018-01-01T07:20:45.498Z,98991.83
2018-01-01T07:23:17.993Z,98994.63
2018-01-01T07:25:50.491Z,98996.91
2018-01-01T07:28:22.986Z,99000.78
2018-01-01T07:30:55.458Z,99013.13
2018-01-01T07:33:27.985Z,99012.25
2018-01-01T07:36:00.496Z,99020.20
2018-01-01T07:38:33.036Z,99029.98
2018-01-01T07:41:05.535Z,99039.34
2018-01-01T07:43:38.056Z,99039.69
2018-01-01T07:46:10.536Z,99048.39
2018-01-01T07:48:43.042Z,99065.97
2018-01-01T07:51:15.525Z,99068.89
2018-01-01T07:53:48.039Z,99060.38
2018-01-01T07:56:20.515Z,99073.45
2018-01-01T07:58:53.029Z,99074.53
2018-01-01T08:01:25.503Z,99069.45
2018-01-01T08:03:58.024Z,99066.97
2018-01-01T08:06:30.518Z,99086.01
2018-01-01T08:09:03.028Z,99092.30
2018-01-01T08:11:36.317Z,99096.26
2018-01-01T08:14:08.823Z,99094.73
2018-01-01T08:16:41.330Z,99090.50
2018-01-01T08:19:14.724Z,99099.17
2018-01-01T08:21:47.211Z,99094.81
2018-01-01T08:24:19.717Z,99103.74
2018-01-01T08:26:52.204Z,99119.58
2018-01-01T08:29:24.736Z,99124.44
2018-01-01T08:31:57.215Z,99125.01
2018-01-01T08:34:29.734Z,99132.94
2018-01-01T08:37:02.244Z,99140.19
2018-01-01T08:39:34.756Z,99141.42
2018-01-01T08:42:07.245Z,99149.09
2018-01-01T08:44:39.765Z,99161.16
2018-01-01T08:47:12.253Z,99166.09
2018-01-01T08:49:44.772Z,99156.30
2018-01-01T08:52:17.269Z,99158.99
2018-01-01T08:54:49.782Z,99160.80
2018-01-01T08:57:22.268Z,99172.40
2018-01-01T08:59:54.774Z,99188.22
2018-01-01T09:02:27.266Z,99189.03
2018-01-01T09:04:59.791Z,99198.09
2018-01-01T09:07:32.628Z,99205.53
2018-01-01T09:10:05.113Z,99208.80
2018-01-01T09:12:37.615Z,99216.56
2018-01-01T09:15:10.088Z,99219.52
2018-01-01T09:17:42.595Z,99217.34
2018-01-01T09:20:15.135Z,99225.42
2018-01-01T09:22:47.643Z,99244.02
2018-01-01T09:25:20.128Z,99233.98
2018-01-01T09:27:52.635Z,99242.44
2018-01-01T09:30:25.126Z,99234.70
2018-01-01T09:32:57.676Z,99239.36
2018-01-01T09:35:30.161Z,99241.34
2018-01-01T09:38:03.210Z,99240.84
2018-01-01T09:40:35.726Z,99245.44
2018-01-01T09:43:08.231Z,99235.41
2018-01-01T09:45:40.729Z,99240.56
2018-01-01T09:48:13.274Z,99251.67
2018-01-01T09:50:45.780Z,99236.83
2018-01-01T09:53:18.291Z,99248.09
2018-01-01T09:55:50.997Z,99241.03
2018-01-01T09:58:23.761Z,99234.66
2018-01-01T10:00:56.268Z,99254.02
2018-01-01T10:03:28.844Z,99246.36
2018-01-01T10:06:01.340Z,99245.87
2018-01-01T10:08:34.670Z,99253.75
2018-01-01T10:11:07.195Z,99249.30
2018-01-01T10:13:39.699Z,99260.34
2018-01-01T10:16:12.198Z,99255.19
2018-01-01T10:18:44.712Z,99251.88
2018-01-01T10:21:17.207Z,99252.70
2018-01-01T10:23:49.705Z,99243.75
2018-01-01T10:26:22.198Z,99250.19
2018-01-01T10:28:54.721Z,99253.42
2018-01-01T10:31:27.195Z,99247.68
2018-01-01T10:33:59.705Z,99247.21
2018-01-01T10:36:33.846Z,99251.95
2018-01-01T10:39:06.362Z,99262.61
2018-01-01T10:41:38.867Z,99258.33
2018-01-01T10:44:11.407Z,99258.30
2018-01-01T10:46:43.894Z,99267.25
2018-01-01T10:49:16.425Z,99267.31
2018-01-01T10:51:48.912Z,99260.08
2018-01-01T10:54:21.439Z,99258.24
2018-01-01T10:56:53.931Z,99259.42
2018-01-01T10:59:26.451Z,99261.41
2018-01-01T11:01:58.936Z,99250.43
2018-01-01T11:04:31.451Z,99248.66
2018-01-01T11:07:04.816Z,99250.57
2018-01-01T11:09:37.342Z,99249.14
2018-01-01T11:12:09.823Z,99257.66
2018-01-01T11:14:42.324Z,99251.55
2018-01-01T11:17:14.822Z,99244.19
2018-01-01T11:19:47.328Z,99255.13
2018-01-01T11:22:19.855Z,99228.10
2018-01-01T11:24:52.339Z,99232.53
2018-01-01T11:27:24.816Z,99232.31
2018-01-01T11:29:57.331Z,99236.22
2018-01-01T11:32:29.895Z,99240.41
2018-01-01T11:35:02.412Z,99232.71
2018-01-01T11:37:34.904Z,99236.20
2018-01-01T11:40:07.401Z,99227.06
2018-01-01T11:42:39.906Z,99232.69
2018-01-01T11:45:12.411Z,99219.36
2018-01-01T11:47:44.884Z,99223.98
2018-01-01T11:50:17.433Z,99224.74
2018-01-01T11:52:49.919Z,99220.03
2018-01-01T11:55:22.416Z,99226.69
2018-01-01T11:57:54.904Z,99220.56
2018-01-01T12:00:27.421Z,99203.92
2018-01-01T12:02:59.926Z,99212.37
2018-01-01T12:05:32.440Z,99211.36
2018-01-01T12:08:05.775Z,99211.47
2018-01-01T12:10:38.318Z,99206.07
2018-01-01T12:13:10.803Z,99202.98
2018-01-01T12:15:43.302Z,99210.72
2018-01-01T12:18:15.783Z,99203.75
2018-01-01T12:20:48.314Z,99200.83
2018-01-01T12:23:20.806Z,99195.98
2018-01-01T12:25:53.315Z,99194.72
2018-01-01T12:28:25.821Z,99189.44
2018-01-01T12:30:58.350Z,99195.86
2018-01-01T12:33:30.847Z,99192.84
2018-01-01T12:36:03.692Z,99198.46
2018-01-01T12:38:36.187Z,99203.28
2018-01-01T12:41:08.711Z,99187.36
2018-01-01T12:43:41.196Z,99180.05
2018-01-01T12:46:13.710Z,99193.77
2018-01-01T12:48:46.197Z,99186.11
2018-01-01T12:51:18.720Z,99180.61
2018-01-01T12:53:51.201Z,99173.13
2018-01-01T12:56:23.728Z,99170.28
2018-01-01T12:58:56.207Z,99169.61
2018-01-01T13:01:28.715Z,99171.76
2018-01-01T13:04:01.214Z,99160.14
2018-01-01T13:06:34.347Z,99165.95
2018-01-01T13:09:06.874Z,99159.66
2018-01-01T13:11:39.360Z,99163.13
2018-01-01T13:14:11.865Z,99156.23
2018-01-01T13:16:44.604Z,99160.23
2018-01-01T13:19:17.145Z,99161.27
2018-01-01T13:21:49.624Z,99166.69
2018-01-01T13:24:22.126Z,99161.30
2018-01-01T13:26:54.619Z,99160.11
2018-01-01T13:29:27.123Z,99165.95
2018-01-01T13:31:59.609Z,99167.80
2018-01-01T13:34:32.128Z,99161.73
2018-01-01T13:37:04.961Z,99160.63
2018-01-01T13:39:37.453Z,99163.41
2018-01-01T13:42:09.955Z,99153.74
2018-01-01T13:44:42.472Z,99152.25
2018-01-01T13:47:14.950Z,99155.69
2018-01-01T13:49:47.475Z,99148.55
2018-01-01T13:52:19.951Z,99143.85
2018-01-01T13:54:52.456Z,99142.59
2018-01-01T13:57:24.948Z,99133.02
2018-01-01T13:59:57.453Z,99127.88
2018-01-01T14:02:29.930Z,99127.38
2018-01-01T14:05:03.213Z,99130.45
2018-01-01T14:07:35.765Z,99132.16
2018-01-01T14:10:08.285Z,99134.44
2018-01-01T14:12:40.767Z,99127.69
2018-01-01T14:15:13.268Z,99134.69
2018-01-01T14:17:45.755Z,99129.34
2018-01-01T14:20:18.268Z,99131.85
2018-01-01T14:22:50.790Z,99128.14
2018-01-01T14:25:23.295Z,99132.11
2018-01-01T14:27:55.806Z,99148.07
2018-01-01T14:30:28.314Z,99138.77
2018-01-01T14:33:00.808Z,99135.16
2018-01-01T14:35:33.784Z,99132.66
2018-01-01T14:38:06.274Z,99131.94
2018-01-01T14:40:38.818Z,99129.84
2018-01-01T14:43:11.324Z,99135.27
2018-01-01T14:45:44.829Z,99137.91
2018-01-01T14:48:17.385Z,99134.13
2018-01-01T14:50:49.894Z,99123.61
2018-01-01T14:53:22.394Z,99123.08
2018-01-01T14:55:54.904Z,99135.47
2018-01-01T14:58:27.399Z,99138.24
2018-01-01T15:00:59.904Z,99138.23
2018-01-01T15:03:32.419Z,99133.23
2018-01-01T15:06:04.916Z,99143.59
2018-01-01T15:08:37.396Z,99134.44
2018-01-01T15:11:09.905Z,99142.73
2018-01-01T15:13:42.397Z,99139.88
2018-01-01T15:16:15.977Z,99143.91
2018-01-01T15:18:48.464Z,99129.66
2018-01-01T15:21:20.975Z,99133.73
2018-01-01T15:23:53.460Z,99134.14
2018-01-01T15:26:25.963Z,99134.14
2018-01-01T15:28:58.452Z,99133.45
2018-01-01T15:31:30.956Z,99136.79
2018-01-01T15:34:03.458Z,99138.30
2018-01-01T15:36:35.966Z,99138.68
2018-01-01T15:39:08.442Z,99140.27
2018-01-01T15:41:40.958Z,99143.24
2018-01-01T15:44:14.169Z,99134.34
2018-01-01T15:46:46.653Z,99130.97
2018-01-01T15:49:19.141Z,99130.18
2018-01-01T15:51:51.645Z,99127.88
2018-01-01T15:54:24.157Z,99132.13
2018-01-01T15:56:56.652Z,99120.69
2018-01-01T15:59:29.139Z,99118.20
2018-01-01T16:02:01.646Z,99117.78
2018-01-01T16:04:34.123Z,99119.88
2018-01-01T16:07:06.644Z,99115.09
2018-01-01T16:09:39.124Z,99114.78
2018-01-01T16:12:11.628Z,99110.13
2018-01-01T16:14:44.106Z,99118.28
2018-01-01T16:17:16.619Z,99118.97
2018-01-01T16:19:49.152Z,99112.55
2018-01-01T16:22:21.654Z,99123.09
2018-01-01T16:24:54.135Z,99124.44
2018-01-01T16:27:26.654Z,99109.55
2018-01-01T16:29:59.142Z,99109.14
2018-01-01T16:32:31.646Z,99106.22
2018-01-01T16:35:04.134Z,99102.70
2018-01-01T16:37:36.634Z,99105.38
2018-01-01T16:40:09.148Z,99104.89
2018-01-01T16:42:41.682Z,99108.48
2018-01-01T16:45:14.167Z,99112.36
2018-01-01T16:47:46.678Z,99114.66
2018-01-01T16:50:19.197Z,99110.05
2018-01-01T16:52:51.715Z,99111.41
2018-01-01T16:55:24.198Z,99106.48
2018-01-01T16:57:56.710Z,99113.79
2018-01-01T17:00:29.189Z,99110.45
2018-01-01T17:03:01.709Z,99109.02
2018-01-01T17:05:34.220Z,99106.22
2018-01-01T17:08:06.721Z,99102.09
2018-01-01T17:10:39.236Z,99102.53
2018-01-01T17:13:11.746Z,99105.87
2018-01-01T17:15:44.269Z,99104.75
2018-01-01T17:18:16.755Z,99111.89
2018-01-01T17:20:49.302Z,99113.70
2018-01-01T17:23:21.781Z,99119.07
2018-01-01T17:25:55.256Z,99123.14
2018-01-01T17:28:27.745Z,99121.91
2018-01-01T17:31:00.248Z,99116.97
2018-01-01T17:33:32.720Z,99112.55
2018-01-01T17:36:05.223Z,99112.16
2018-01-01T17:38:37.723Z,99113.14
2018-01-01T17:41:10.231Z,99118.66
2018-01-01T17:43:42.730Z,99108.03
2018-01-01T17:46:16.561Z,99116.09
2018-01-01T17:48:49.065Z,99114.56
2018-01-01T17:51:21.574Z,99111.31
2018-01-01T17:53:54.067Z,99115.63
2018-01-01T17:56:26.582Z,99114.38
2018-01-01T17:58:59.078Z,99112.20
2018-01-01T18:01:31.630Z,99113.77
2018-01-01T18:04:04.122Z,99112.79
2018-01-01T18:06:36.621Z,99117.07
2018-01-01T18:09:09.106Z,99115.59
2018-01-01T18:11:41.633Z,99115.18
2018-01-01T18:16:53.260Z,99108.92
2018-01-01T18:19:25.789Z,99112.73
2018-01-01T18:21:58.300Z,99110.42
2018-01-01T18:24:30.798Z,99114.31
2018-01-01T18:27:03.330Z,99116.80
2018-01-01T18:29:35.840Z,99119.66
2018-01-01T18:32:08.344Z,99118.01
2018-01-01T18:34:40.828Z,99128.81
2018-01-01T18:37:13.333Z,99124.75
2018-01-01T18:39:45.827Z,99125.75
2018-01-01T18:42:18.328Z,99120.34
2018-01-01T18:44:50.825Z,99116.00
2018-01-01T18:47:23.349Z,99113.73
2018-01-01T18:49:55.827Z,99110.92
2018-01-01T18:52:28.323Z,99118.07
2018-01-01T18:55:00.806Z,99115.17
2018-01-01T18:57:33.325Z,99111.30
2018-01-01T19:00:05.811Z,99110.00
2018-01-01T19:02:38.334Z,99109.77
2018-01-01T19:05:10.827Z,99110.21
2018-01-01T19:07:43.388Z,99105.22
2018-01-01T19:10:15.855Z,99102.54
2018-01-01T19:12:48.363Z,99102.39
2018-01-01T19:15:20.851Z,99112.34
2018-01-01T19:17:53.377Z,99107.64
2018-01-01T19:20:25.863Z,99098.61
2018-01-01T19:22:58.375Z,99095.27
2018-01-01T19:25:30.853Z,99094.36
2018-01-01T19:28:03.384Z,99088.01
2018-01-01T19:30:35.854Z,99101.00
2018-01-01T19:33:08.431Z,99092.34
2018-01-01T19:35:40.919Z,99097.06
2018-01-01T19:38:14.060Z,99091.41
2018-01-01T19:40:46.532Z,99093.41
2018-01-01T19:43:19.031Z,99086.58
2018-01-01T19:45:51.517Z,99084.73
2018-01-01T19:48:24.028Z,99081.83
2018-01-01T19:50:56.538Z,99077.61
2018-01-01T19:53:29.068Z,99083.48
2018-01-01T19:56:01.577Z,99076.58
2018-01-01T19:58:34.112Z,99082.45
2018-01-01T20:01:06.608Z,99079.58
2018-01-01T20:03:39.355Z,99074.20
2018-01-01T20:06:11.918Z,99079.18
2018-01-01T20:08:45.560Z,99076.55
2018-01-01T20:11:18.167Z,99080.98
2018-01-01T20:13:50.811Z,99074.97
2018-01-01T20:16:23.351Z,99078.66
2018-01-01T20:18:56.234Z,99077.84
2018-01-01T20:21:28.869Z,99072.34
2018-01-01T20:24:01.886Z,99071.98
2018-01-01T20:26:34.377Z,99066.88
2018-01-01T20:29:06.979Z,99067.47
2018-01-01T20:31:39.501Z,99064.55
2018-01-01T20:34:12.015Z,99067.53
2018-01-01T20:36:45.284Z,99064.52
2018-01-01T20:39:17.803Z,99069.33
2018-01-01T20:41:50.333Z,99077.27
2018-01-01T20:44:22.951Z,99072.20
2018-01-01T20:46:55.855Z,99073.22
2018-01-01T20:49:28.380Z,99074.59
2018-01-01T20:52:00.878Z,99079.16
2018-01-01T20:54:33.400Z,99074.11
2018-01-01T20:57:05.997Z,99075.59
2018-01-01T20:59:38.607Z,99074.22
2018-01-01T21:02:11.149Z,99076.47
2018-01-01T21:04:43.651Z,99080.48
2018-01-01T21:07:17.069Z,99085.91
2018-01-01T21:09:49.644Z,99087.53
2018-01-01T21:12:22.154Z,99082.98
2018-01-01T21:14:55.706Z,99088.39
2018-01-01T21:17:28.202Z,99092.05
2018-01-01T21:20:01.793Z,99083.95
2018-01-01T21:22:34.286Z,99088.15
2018-01-01T21:25:06.864Z,99088.69
2018-01-01T21:27:39.342Z,99083.09
2018-01-01T21:30:11.896Z,99081.89
2018-01-01T21:32:45.380Z,99088.77
2018-01-01T21:35:17.953Z,99093.88
2018-01-01T21:37:50.430Z,99097.70
2018-01-01T21:40:22.955Z,99108.05
2018-01-01T21:42:55.480Z,99104.99
2018-01-01T21:45:28.056Z,99103.52
2018-01-01T21:48:00.875Z,99103.06
2018-01-01T21:50:33.408Z,99101.21
2018-01-01T21:53:05.976Z,99111.91
2018-01-01T21:55:38.494Z,99112.02
2018-01-01T21:58:11.037Z,99117.81
2018-01-01T22:00:43.564Z,99119.66
2018-01-01T22:03:16.537Z,99119.28
2018-01-01T22:05:49.060Z,99123.03
2018-01-01T22:08:21.653Z,99127.95
2018-01-01T22:10:55.196Z,99127.91
2018-01-01T22:13:27.755Z,99129.55
2018-01-01T22:16:00.339Z,99128.59
2018-01-01T22:18:32.883Z,99121.41
2018-01-01T22:21:05.391Z,99120.49
2018-01-01T22:23:37.873Z,99118.11
2018-01-01T22:26:11.101Z,99123.29
2018-01-01T22:28:43.723Z,99130.59
2018-01-01T22:31:16.581Z,99128.27
2018-01-01T22:33:49.070Z,99132.19
2018-01-01T22:36:21.584Z,99136.41
2018-01-01T22:38:54.085Z,99139.87
2018-01-01T22:41:26.648Z,99137.34
2018-01-01T22:43:59.137Z,99133.66
2018-01-01T22:46:31.670Z,99135.08
2018-01-01T22:49:04.181Z,99141.08
2018-01-01T22:51:36.699Z,99149.25
2018-01-01T22:54:09.188Z,99149.88
2018-01-01T22:56:41.996Z,99146.77
2018-01-01T22:59:14.495Z,99150.70
2018-01-01T23:01:47.715Z,99148.95
2018-01-01T23:04:20.203Z,99160.94
2018-01-01T23:06:53.508Z,99156.61
2018-01-01T23:09:25.997Z,99152.97
2018-01-01T23:12:02.207Z,99156.69
2018-01-01T23:14:34.696Z,99149.88
2018-01-01T23:17:07.205Z,99158.09
2018-01-01T23:19:40.483Z,99153.17
2018-01-01T23:22:13.114Z,99150.80
2018-01-01T23:24:46.210Z,99163.23
2018-01-01T23:27:18.726Z,99157.73
2018-01-01T23:29:51.240Z,99161.08
2018-01-01T23:32:23.745Z,99158.28
2018-01-01T23:34:56.225Z,99163.16
2018-01-01T23:37:28.727Z,99162.50
2018-01-01T23:40:01.203Z,99164.03
2018-01-01T23:42:33.730Z,99172.80
2018-01-01T23:45:06.224Z,99173.84
2018-01-01T23:47:38.775Z,99175.22
2018-01-01T23:50:11.262Z,99179.83
2018-01-01T23:52:43.791Z,99179.98
2018-01-01T23:55:16.318Z,99176.09
2018-01-01T23:57:48.820Z,99183.50
